createdAt,value
2019-02-09T00:00:59.560Z,0.00
2019-02-09T00:01:59.584Z,0.00
2019-02-09T00:02:59.629Z,0.00
2019-02-09T00:03:59.660Z,0.00
2019-02-09T00:04:59.700Z,0.00
2019-02-09T00:05:59.737Z,0.00
2019-02-09T00:06:59.778Z,0.00
2019-02-09T00:07:59.814Z,0.00
2019-02-09T00:08:59.873Z,0.00
2019-02-09T00:09:59.895Z,0.00
2019-02-09T00:10:59.928Z,0.00
2019-02-09T00:11:59.967Z,0.00
2019-02-09T00:13:00.003Z,0.00
2019-02-09T00:14:00.043Z,0.00
2019-02-09T00:15:00.091Z,0.00
2019-02-09T00:16:00.132Z,0.00
2019-02-09T00:17:00.158Z,0.00
2019-02-09T00:18:00.197Z,0.00
2019-02-09T00:19:00.235Z,0.00
2019-02-09T00:20:00.280Z,0.00
2019-02-09T00:21:00.320Z,0.00
2019-02-09T00:22:00.353Z,0.00
2019-02-09T00:23:00.388Z,0.00
2019-02-09T00:24:00.426Z,0.00
2019-02-09T00:25:00.463Z,0.00
2019-02-09T00:26:00.504Z,0.00
2019-02-09T00:27:00.543Z,0.00
2019-02-09T00:28:00.580Z,0.00
2019-02-09T00:29:00.617Z,0.00
2019-02-09T00:30:00.657Z,0.00
2019-02-09T00:31:00.697Z,0.00
2019-02-09T00:32:00.734Z,0.00
2019-02-09T00:33:00.773Z,0.00
2019-02-09T00:34:00.811Z,0.00
2019-02-09T00:35:00.850Z,0.00
2019-02-09T00:36:00.890Z,0.00
2019-02-09T00:37:00.940Z,0.00
2019-02-09T00:38:00.963Z,0.00
2019-02-09T00:39:01.002Z,0.00
2019-02-09T00:40:01.046Z,0.00
2019-02-09T00:41:01.079Z,0.00
2019-02-09T00:42:01.115Z,0.00
2019-02-09T00:43:01.153Z,0.00
2019-02-09T00:44:01.343Z,0.00
2019-02-09T00:45:01.230Z,0.00
2019-02-09T00:46:01.297Z,0.00
2019-02-09T00:47:01.309Z,0.00
2019-02-09T00:48:01.347Z,0.00
2019-02-09T00:49:01.385Z,0.00
2019-02-09T00:50:01.422Z,0.00
2019-02-09T00:51:01.462Z,0.00
2019-02-09T00:52:01.501Z,0.00
2019-02-09T00:53:01.535Z,0.00
2019-02-09T00:54:01.576Z,0.00
2019-02-09T00:55:01.614Z,0.00
2019-02-09T00:56:01.662Z,0.00
2019-02-09T00:57:01.690Z,0.00
2019-02-09T00:58:01.728Z,0.00
2019-02-09T00:59:01.767Z,0.00
2019-02-09T01:00:01.807Z,0.00
2019-02-09T01:01:01.843Z,0.00
2019-02-09T01:02:01.891Z,0.00
2019-02-09T01:03:01.921Z,0.00
2019-02-09T01:04:01.960Z,0.00
2019-02-09T01:05:02.000Z,0.00
2019-02-09T01:06:02.034Z,0.00
2019-02-09T01:07:02.092Z,0.00
2019-02-09T01:08:02.113Z,0.00
2019-02-09T01:09:02.151Z,0.00
2019-02-09T01:10:02.339Z,0.00
2019-02-09T01:11:02.233Z,0.00
2019-02-09T01:12:02.268Z,0.00
2019-02-09T01:13:02.310Z,0.00
2019-02-09T01:14:02.346Z,0.00
2019-02-09T01:15:02.380Z,0.00
2019-02-09T01:16:02.423Z,0.00
2019-02-09T01:17:02.558Z,0.00
2019-02-09T01:18:02.500Z,0.00
2019-02-09T01:19:02.534Z,0.00
2019-02-09T01:20:02.572Z,0.00
2019-02-09T01:21:02.610Z,0.00
2019-02-09T01:22:02.647Z,0.00
2019-02-09T01:23:02.686Z,0.00
2019-02-09T01:24:02.725Z,0.00
2019-02-09T01:25:02.766Z,0.00
2019-02-09T01:26:02.802Z,0.00
2019-02-09T01:27:02.849Z,0.00
2019-02-09T01:28:02.878Z,0.00
2019-02-09T01:29:02.927Z,0.00
2019-02-09T01:30:03.068Z,0.00
2019-02-09T01:31:02.993Z,0.00
2019-02-09T01:32:03.029Z,0.00
2019-02-09T01:33:03.069Z,0.00
2019-02-09T01:34:03.106Z,0.00
2019-02-09T01:35:03.146Z,0.00
2019-02-09T01:36:03.184Z,0.00
2019-02-09T01:37:03.222Z,0.00
2019-02-09T01:38:03.260Z,0.00
2019-02-09T01:39:03.299Z,0.00
2019-02-09T01:40:03.337Z,0.00
2019-02-09T01:41:03.375Z,0.00
2019-02-09T01:42:03.412Z,0.00
2019-02-09T01:43:03.449Z,0.00
2019-02-09T01:44:03.504Z,0.00
2019-02-09T01:45:03.524Z,0.00
2019-02-09T01:46:03.574Z,0.00
2019-02-09T01:47:03.603Z,0.00
2019-02-09T01:48:03.645Z,0.00
2019-02-09T01:49:03.680Z,0.00
2019-02-09T01:50:03.741Z,0.00
2019-02-09T01:51:03.754Z,0.00
2019-02-09T01:52:03.793Z,0.00
2019-02-09T01:53:03.831Z,0.00
2019-02-09T01:54:03.877Z,0.00
2019-02-09T01:55:03.909Z,0.00
2019-02-09T01:56:03.945Z,0.00
2019-02-09T01:57:03.984Z,0.00
2019-02-09T01:58:04.021Z,0.00
2019-02-09T01:59:04.062Z,0.00
2019-02-09T02:00:10.318Z,0.00
2019-02-09T02:01:04.155Z,0.00
2019-02-09T02:02:04.174Z,0.00
2019-02-09T02:03:04.215Z,0.00
2019-02-09T02:04:04.253Z,0.00
2019-02-09T02:05:04.293Z,0.00
2019-02-09T02:06:04.328Z,0.00
2019-02-09T02:07:04.366Z,0.00
2019-02-09T02:08:04.405Z,0.00
2019-02-09T02:09:04.444Z,0.00
2019-02-09T02:10:04.485Z,0.00
2019-02-09T02:11:04.528Z,0.00
2019-02-09T02:12:04.560Z,0.00
2019-02-09T02:13:04.600Z,0.00
2019-02-09T02:14:04.635Z,0.00
2019-02-09T02:15:04.673Z,0.00
2019-02-09T02:16:04.712Z,0.00
2019-02-09T02:17:04.747Z,0.00
2019-02-09T02:18:04.795Z,0.00
2019-02-09T02:19:04.825Z,0.00
2019-02-09T02:20:04.864Z,0.00
2019-02-09T02:21:04.906Z,0.00
2019-02-09T02:22:04.941Z,0.00
2019-02-09T02:23:04.989Z,0.00
2019-02-09T02:24:05.020Z,0.00
2019-02-09T02:25:05.064Z,0.00
2019-02-09T02:26:05.097Z,0.00
2019-02-09T02:27:05.138Z,0.00
2019-02-09T02:28:05.272Z,0.00
2019-02-09T02:29:05.209Z,0.00
2019-02-09T02:30:05.250Z,0.00
2019-02-09T02:31:05.287Z,0.00
2019-02-09T02:32:05.326Z,0.00
2019-02-09T02:33:05.365Z,0.00
2019-02-09T02:34:05.403Z,0.00
2019-02-09T02:35:05.442Z,0.00
2019-02-09T02:36:05.485Z,0.00
2019-02-09T02:37:05.519Z,0.00
2019-02-09T02:38:05.564Z,0.00
2019-02-09T02:39:05.604Z,0.00
2019-02-09T02:40:05.638Z,0.00
2019-02-09T02:41:05.671Z,0.00
2019-02-09T02:42:05.707Z,0.00
2019-02-09T02:43:05.752Z,0.00
2019-02-09T02:44:05.795Z,0.00
2019-02-09T02:45:05.823Z,0.00
2019-02-09T02:46:05.885Z,0.00
2019-02-09T02:47:05.909Z,0.00
2019-02-09T02:48:05.937Z,0.00
2019-02-09T02:49:05.977Z,0.00
2019-02-09T02:50:06.021Z,0.00
2019-02-09T02:51:06.053Z,0.00
2019-02-09T02:52:06.091Z,0.00
2019-02-09T02:53:06.128Z,0.00
2019-02-09T02:54:06.166Z,0.00
2019-02-09T02:55:06.208Z,0.00
2019-02-09T02:56:06.242Z,0.00
2019-02-09T02:57:06.300Z,0.00
2019-02-09T02:58:06.321Z,0.00
2019-02-09T02:59:06.358Z,0.00
2019-02-09T03:00:06.395Z,0.00
2019-02-09T03:01:06.432Z,0.00
2019-02-09T03:02:06.486Z,0.00
2019-02-09T03:03:06.510Z,0.00
2019-02-09T03:04:06.549Z,0.00
2019-02-09T03:05:06.585Z,0.00
2019-02-09T03:06:06.626Z,0.00
2019-02-09T03:07:06.661Z,0.00
2019-02-09T03:08:06.704Z,0.00
2019-02-09T03:09:06.736Z,0.00
2019-02-09T03:10:06.788Z,0.00
2019-02-09T03:11:06.815Z,0.00
2019-02-09T03:12:06.851Z,0.00
2019-02-09T03:13:06.899Z,0.00
2019-02-09T03:14:06.929Z,0.00
2019-02-09T03:15:06.973Z,0.00
2019-02-09T03:16:07.015Z,0.00
2019-02-09T03:17:07.042Z,0.00
2019-02-09T03:18:07.089Z,0.00
2019-02-09T03:19:07.115Z,0.00
2019-02-09T03:20:07.154Z,0.00
2019-02-09T03:21:07.194Z,0.00
2019-02-09T03:22:07.233Z,0.00
2019-02-09T03:23:07.270Z,0.00
2019-02-09T03:24:07.309Z,0.00
2019-02-09T03:25:07.344Z,0.00
2019-02-09T03:26:07.382Z,0.00
2019-02-09T03:27:07.420Z,0.00
2019-02-09T03:28:07.457Z,0.00
2019-02-09T03:29:07.495Z,0.00
2019-02-09T03:30:07.544Z,0.00
2019-02-09T03:31:07.571Z,0.00
2019-02-09T03:32:10.747Z,0.00
2019-02-09T03:33:07.649Z,0.00
2019-02-09T03:34:07.691Z,0.00
2019-02-09T03:35:07.723Z,0.00
2019-02-09T03:36:07.760Z,0.00
2019-02-09T03:37:07.799Z,0.00
2019-02-09T03:38:07.835Z,0.00
2019-02-09T03:39:07.880Z,0.00
2019-02-09T03:40:07.912Z,0.00
2019-02-09T03:41:08.107Z,0.00
2019-02-09T03:42:07.990Z,0.00
2019-02-09T03:43:08.025Z,0.00
2019-02-09T03:44:08.062Z,0.00
2019-02-09T03:45:08.101Z,0.00
2019-02-09T03:46:08.138Z,0.00
2019-02-09T03:47:08.176Z,0.00
2019-02-09T03:48:08.219Z,0.00
2019-02-09T03:49:08.252Z,0.00
2019-02-09T03:50:08.289Z,0.00
2019-02-09T03:51:08.326Z,0.00
2019-02-09T03:52:08.364Z,0.00
2019-02-09T03:53:08.404Z,0.00
2019-02-09T03:54:08.446Z,0.00
2019-02-09T03:55:08.476Z,0.00
2019-02-09T03:56:08.516Z,0.00
2019-02-09T03:57:08.562Z,0.00
2019-02-09T03:58:08.590Z,0.00
2019-02-09T03:59:08.629Z,0.00
2019-02-09T04:00:08.674Z,0.00
2019-02-09T04:01:08.705Z,0.00
2019-02-09T04:02:08.742Z,0.00
2019-02-09T04:03:08.778Z,0.00
2019-02-09T04:04:08.821Z,0.00
2019-02-09T04:05:08.863Z,0.00
2019-02-09T04:06:08.900Z,0.00
2019-02-09T04:07:08.932Z,0.00
2019-02-09T04:08:08.972Z,0.00
2019-02-09T04:09:09.007Z,0.00
2019-02-09T04:10:09.053Z,0.00
2019-02-09T04:11:09.080Z,0.00
2019-02-09T04:12:09.119Z,0.00
2019-02-09T04:13:09.159Z,0.00
2019-02-09T04:14:09.195Z,0.00
2019-02-09T04:15:09.241Z,0.00
2019-02-09T04:16:09.278Z,0.00
2019-02-09T04:17:09.308Z,0.00
2019-02-09T04:18:09.347Z,0.00
2019-02-09T04:19:09.388Z,0.00
2019-02-09T04:20:09.423Z,0.00
2019-02-09T04:21:09.461Z,0.00
2019-02-09T04:22:09.496Z,0.00
2019-02-09T04:23:09.535Z,0.00
2019-02-09T04:24:09.591Z,0.00
2019-02-09T04:25:09.610Z,0.00
2019-02-09T04:26:09.651Z,0.00
2019-02-09T04:27:09.685Z,0.00
2019-02-09T04:28:09.724Z,0.00
2019-02-09T04:29:09.765Z,0.00
2019-02-09T04:30:10.515Z,0.00
2019-02-09T04:31:09.844Z,0.00
2019-02-09T04:32:09.890Z,0.00
2019-02-09T04:33:09.915Z,0.00
2019-02-09T04:34:09.950Z,0.00
2019-02-09T04:35:09.989Z,0.00
2019-02-09T04:36:10.028Z,0.00
2019-02-09T04:37:10.064Z,0.00
2019-02-09T04:38:10.152Z,0.00
2019-02-09T04:39:10.154Z,0.00
2019-02-09T04:40:10.180Z,0.00
2019-02-09T04:41:10.220Z,0.00
2019-02-09T04:42:10.327Z,0.00
2019-02-09T04:43:10.302Z,0.00
2019-02-09T04:44:10.333Z,0.00
2019-02-09T04:45:10.369Z,0.00
2019-02-09T04:46:10.405Z,0.00
2019-02-09T04:47:10.453Z,0.00
2019-02-09T04:48:10.482Z,0.00
2019-02-09T04:49:10.527Z,0.00
2019-02-09T04:50:10.555Z,0.00
2019-02-09T04:51:10.609Z,0.00
2019-02-09T04:52:10.634Z,0.00
2019-02-09T04:53:10.669Z,0.00
2019-02-09T04:54:10.712Z,0.00
2019-02-09T04:55:10.745Z,0.00
2019-02-09T04:56:10.786Z,0.00
2019-02-09T04:57:10.821Z,0.00
2019-02-09T04:58:10.858Z,0.00
2019-02-09T04:59:10.896Z,0.00
2019-02-09T05:00:10.935Z,0.00
2019-02-09T05:01:13.973Z,0.00
2019-02-09T05:02:11.010Z,0.00
2019-02-09T05:03:11.049Z,0.00
2019-02-09T05:04:11.087Z,0.00
2019-02-09T05:05:11.122Z,0.00
2019-02-09T05:06:11.161Z,0.00
2019-02-09T05:07:11.199Z,0.00
2019-02-09T05:08:11.240Z,0.00
2019-02-09T05:09:11.277Z,0.00
2019-02-09T05:10:11.313Z,0.00
2019-02-09T05:11:11.357Z,0.00
2019-02-09T05:12:11.392Z,0.00
2019-02-09T05:13:11.427Z,0.00
2019-02-09T05:14:11.465Z,0.00
2019-02-09T05:15:11.502Z,0.00
2019-02-09T05:16:11.549Z,0.00
2019-02-09T05:17:11.577Z,0.00
2019-02-09T05:18:11.669Z,0.00
2019-02-09T05:19:11.656Z,0.00
2019-02-09T05:20:11.692Z,0.00
2019-02-09T05:21:11.730Z,0.00
2019-02-09T05:22:11.768Z,0.00
2019-02-09T05:23:11.811Z,0.00
2019-02-09T05:24:11.844Z,0.00
2019-02-09T05:25:11.883Z,0.00
2019-02-09T05:26:11.919Z,0.00
2019-02-09T05:27:11.958Z,0.00
2019-02-09T05:28:12.004Z,0.00
2019-02-09T05:29:12.032Z,0.00
2019-02-09T05:30:12.071Z,0.00
2019-02-09T05:31:12.112Z,0.00
2019-02-09T05:32:12.225Z,0.00
2019-02-09T05:33:12.185Z,0.00
2019-02-09T05:34:12.231Z,0.00
2019-02-09T05:35:12.261Z,0.00
2019-02-09T05:36:12.300Z,0.00
2019-02-09T05:37:12.336Z,0.00
2019-02-09T05:38:12.375Z,0.00
2019-02-09T05:39:12.414Z,0.00
2019-02-09T05:40:12.450Z,0.00
2019-02-09T05:41:12.486Z,0.00
2019-02-09T05:42:12.527Z,0.00
2019-02-09T05:43:12.567Z,0.00
2019-02-09T05:44:12.602Z,0.00
2019-02-09T05:45:12.641Z,0.00
2019-02-09T05:46:12.678Z,0.00
2019-02-09T05:47:12.722Z,0.00
2019-02-09T05:48:12.752Z,0.00
2019-02-09T05:49:12.793Z,0.00
2019-02-09T05:50:12.831Z,0.00
2019-02-09T05:51:12.878Z,0.00
2019-02-09T05:52:12.906Z,0.00
2019-02-09T05:53:12.941Z,0.00
2019-02-09T05:54:12.989Z,0.00
2019-02-09T05:55:13.028Z,0.00
2019-02-09T05:56:13.106Z,0.00
2019-02-09T05:57:13.094Z,0.00
2019-02-09T05:58:13.129Z,0.00
2019-02-09T05:59:13.169Z,0.00
2019-02-09T06:00:13.204Z,0.00
2019-02-09T06:01:13.244Z,0.00
2019-02-09T06:02:13.282Z,0.00
2019-02-09T06:03:13.337Z,0.00
2019-02-09T06:04:13.359Z,0.00
2019-02-09T06:05:13.394Z,0.00
2019-02-09T06:06:13.433Z,0.00
2019-02-09T06:07:13.469Z,0.00
2019-02-09T06:08:13.509Z,0.00
2019-02-09T06:09:13.546Z,0.00
2019-02-09T06:10:13.584Z,0.00
2019-02-09T06:11:13.622Z,0.00
2019-02-09T06:12:13.660Z,0.00
2019-02-09T06:13:13.697Z,0.00
2019-02-09T06:14:13.736Z,0.00
2019-02-09T06:15:13.773Z,0.00
2019-02-09T06:16:13.811Z,0.00
2019-02-09T06:17:13.850Z,4.00
2019-02-09T06:18:13.887Z,4.00
2019-02-09T06:19:13.934Z,4.00
2019-02-09T06:20:13.964Z,4.00
2019-02-09T06:21:14.001Z,8.00
2019-02-09T06:22:14.041Z,8.00
2019-02-09T06:23:14.076Z,12.00
2019-02-09T06:24:14.116Z,12.00
2019-02-09T06:25:14.162Z,12.00
2019-02-09T06:26:14.188Z,8.00
2019-02-09T06:27:14.227Z,8.00
2019-02-09T06:28:14.265Z,12.00
2019-02-09T06:29:14.334Z,20.00
2019-02-09T06:30:14.349Z,24.00
2019-02-09T06:31:14.379Z,28.00
2019-02-09T06:32:14.416Z,28.00
2019-02-09T06:33:14.453Z,36.00
2019-02-09T06:34:14.503Z,44.00
2019-02-09T06:35:14.530Z,56.00
2019-02-09T06:36:14.571Z,60.00
2019-02-09T06:37:14.606Z,72.00
2019-02-09T06:38:14.641Z,88.00
2019-02-09T06:39:14.688Z,100.00
2019-02-09T06:40:14.720Z,108.00
2019-02-09T06:41:14.770Z,112.00
2019-02-09T06:42:14.794Z,128.00
2019-02-09T06:43:14.832Z,140.00
2019-02-09T06:44:14.873Z,152.00
2019-02-09T06:45:14.910Z,172.00
2019-02-09T06:46:14.945Z,184.00
2019-02-09T06:47:14.984Z,200.00
2019-02-09T06:48:15.023Z,216.00
2019-02-09T06:49:15.066Z,216.00
2019-02-09T06:50:15.098Z,212.00
2019-02-09T06:51:15.134Z,224.00
2019-02-09T06:52:15.176Z,204.00
2019-02-09T06:53:15.217Z,228.00
2019-02-09T06:54:15.252Z,272.00
2019-02-09T06:55:15.287Z,324.00
2019-02-09T06:56:15.323Z,352.00
2019-02-09T06:57:15.362Z,372.00
2019-02-09T06:58:15.401Z,388.00
2019-02-09T06:59:15.441Z,420.00
2019-02-09T07:00:15.478Z,456.00
2019-02-09T07:01:15.512Z,544.00
2019-02-09T07:02:15.551Z,564.00
2019-02-09T07:03:15.591Z,576.00
2019-02-09T07:04:15.627Z,616.00
2019-02-09T07:05:15.664Z,648.00
2019-02-09T07:06:15.710Z,700.00
2019-02-09T07:07:15.740Z,744.00
2019-02-09T07:08:16.791Z,800.00
2019-02-09T07:09:15.817Z,852.00
2019-02-09T07:10:15.856Z,892.00
2019-02-09T07:11:15.893Z,964.00
2019-02-09T07:12:15.931Z,1012.00
2019-02-09T07:13:15.968Z,1120.00
2019-02-09T07:14:16.006Z,1284.00
2019-02-09T07:15:16.043Z,1420.00
2019-02-09T07:16:16.082Z,1912.00
2019-02-09T07:17:16.120Z,2040.00
2019-02-09T07:18:16.160Z,1956.00
2019-02-09T07:19:16.247Z,1788.00
2019-02-09T07:20:16.234Z,1632.00
2019-02-09T07:21:16.272Z,1392.00
2019-02-09T07:22:16.310Z,1296.00
2019-02-09T07:23:16.350Z,1364.00
2019-02-09T07:24:16.390Z,1500.00
2019-02-09T07:25:16.424Z,1308.00
2019-02-09T07:26:16.461Z,1064.00
2019-02-09T07:27:16.501Z,868.00
2019-02-09T07:28:16.549Z,904.00
2019-02-09T07:29:16.577Z,824.00
2019-02-09T07:30:16.623Z,688.00
2019-02-09T07:31:16.653Z,680.00
2019-02-09T07:32:16.701Z,728.00
2019-02-09T07:33:16.830Z,924.00
2019-02-09T07:34:16.768Z,1240.00
2019-02-09T07:35:16.816Z,1636.00
2019-02-09T07:36:16.845Z,1656.00
2019-02-09T07:37:16.885Z,1740.00
2019-02-09T07:38:16.919Z,1808.00
2019-02-09T07:39:16.959Z,1436.00
2019-02-09T07:40:16.999Z,1548.00
2019-02-09T07:41:17.045Z,2424.00
2019-02-09T07:42:17.074Z,3056.00
2019-02-09T07:43:17.112Z,1916.00
2019-02-09T07:44:17.149Z,1416.00
2019-02-09T07:45:17.189Z,1392.00
2019-02-09T07:46:17.229Z,1404.00
2019-02-09T07:47:17.266Z,1440.00
2019-02-09T07:48:17.316Z,1764.00
2019-02-09T07:49:17.342Z,2136.00
2019-02-09T07:50:17.380Z,2132.00
2019-02-09T07:51:17.419Z,2812.00
2019-02-09T07:52:17.458Z,2836.00
2019-02-09T07:53:17.497Z,2556.00
2019-02-09T07:54:17.541Z,2048.00
2019-02-09T07:55:17.574Z,2308.00
2019-02-09T07:56:17.614Z,2500.00
2019-02-09T07:57:17.654Z,2136.00
2019-02-09T07:58:17.691Z,1804.00
2019-02-09T07:59:17.730Z,1452.00
2019-02-09T08:00:17.769Z,1644.00
2019-02-09T08:01:17.804Z,2100.00
2019-02-09T08:02:17.852Z,2128.00
2019-02-09T08:03:17.887Z,2192.00
2019-02-09T08:04:17.928Z,2564.00
2019-02-09T08:05:17.958Z,2704.00
2019-02-09T08:06:18.001Z,2984.00
2019-02-09T08:07:18.036Z,3348.00
2019-02-09T08:08:18.076Z,3456.00
2019-02-09T08:09:18.111Z,3364.00
2019-02-09T08:10:18.159Z,3480.00
2019-02-09T08:11:18.213Z,3472.00
2019-02-09T08:12:18.229Z,3472.00
2019-02-09T08:13:18.268Z,3180.00
2019-02-09T08:14:18.320Z,2888.00
2019-02-09T08:15:18.397Z,2712.00
2019-02-09T08:16:18.391Z,2688.00
2019-02-09T08:17:18.430Z,2856.00
2019-02-09T08:18:18.466Z,3516.00
2019-02-09T08:19:18.499Z,3840.00
2019-02-09T08:20:18.557Z,3612.00
2019-02-09T08:21:18.612Z,3124.00
2019-02-09T08:22:18.615Z,3160.00
2019-02-09T08:23:18.670Z,3108.00
2019-02-09T08:24:18.702Z,3176.00
2019-02-09T08:25:18.735Z,3308.00
2019-02-09T08:26:18.776Z,3412.00
2019-02-09T08:27:23.593Z,3480.00
2019-02-09T08:28:18.848Z,3544.00
2019-02-09T08:29:18.885Z,3484.00
2019-02-09T08:30:19.259Z,3468.00
2019-02-09T08:31:18.969Z,3500.00
2019-02-09T08:32:19.003Z,3748.00
2019-02-09T08:33:19.042Z,3660.00
2019-02-09T08:34:19.080Z,3744.00
2019-02-09T08:35:19.127Z,3616.00
2019-02-09T08:36:19.158Z,4316.00
2019-02-09T08:37:19.205Z,5272.00
2019-02-09T08:38:19.235Z,6448.00
2019-02-09T08:39:19.272Z,6452.00
2019-02-09T08:40:19.311Z,6280.00
2019-02-09T08:41:19.353Z,5604.00
2019-02-09T08:42:19.388Z,4980.00
2019-02-09T08:43:19.428Z,4640.00
2019-02-09T08:44:19.466Z,5068.00
2019-02-09T08:45:19.504Z,5272.00
2019-02-09T08:46:19.655Z,4992.00
2019-02-09T08:47:19.584Z,4972.00
2019-02-09T08:48:19.622Z,5340.00
2019-02-09T08:49:19.660Z,5440.00
2019-02-09T08:50:19.699Z,5228.00
2019-02-09T08:51:19.740Z,5000.00
2019-02-09T08:52:19.779Z,4996.00
2019-02-09T08:53:19.817Z,4736.00
2019-02-09T08:54:19.855Z,4916.00
2019-02-09T08:55:19.891Z,4896.00
2019-02-09T08:56:19.934Z,5052.00
2019-02-09T08:57:19.973Z,4740.00
2019-02-09T08:58:20.011Z,4892.00
2019-02-09T08:59:20.058Z,5052.00
2019-02-09T09:00:20.092Z,4896.00
2019-02-09T09:01:20.126Z,5644.00
2019-02-09T09:02:20.907Z,6356.00
2019-02-09T09:03:20.207Z,6744.00
2019-02-09T09:04:20.249Z,8700.00
2019-02-09T09:05:20.286Z,8880.00
2019-02-09T09:06:20.324Z,8344.00
2019-02-09T09:07:20.370Z,8092.00
2019-02-09T09:08:20.407Z,5940.00
2019-02-09T09:09:20.440Z,4404.00
2019-02-09T09:10:20.531Z,4256.00
2019-02-09T09:11:20.527Z,4344.00
2019-02-09T09:12:20.558Z,3800.00
2019-02-09T09:13:20.606Z,4644.00
2019-02-09T09:14:20.787Z,4124.00
2019-02-09T09:15:20.684Z,4116.00
2019-02-09T09:16:20.725Z,4804.00
2019-02-09T09:17:20.754Z,4864.00
2019-02-09T09:18:20.796Z,4940.00
2019-02-09T09:19:20.836Z,5876.00
2019-02-09T09:20:20.925Z,6288.00
2019-02-09T09:21:20.913Z,7252.00
2019-02-09T09:22:20.955Z,8156.00
2019-02-09T09:23:20.992Z,8708.00
2019-02-09T09:24:21.045Z,6756.00
2019-02-09T09:25:21.069Z,5636.00
2019-02-09T09:26:21.120Z,6568.00
2019-02-09T09:27:21.180Z,7656.00
2019-02-09T09:28:21.188Z,7480.00
2019-02-09T09:29:21.236Z,7144.00
2019-02-09T09:30:21.278Z,5240.00
2019-02-09T09:31:21.306Z,4836.00
2019-02-09T09:32:28.506Z,4032.00
2019-02-09T09:33:21.438Z,3980.00
2019-02-09T09:34:21.425Z,4112.00
2019-02-09T09:35:21.473Z,4508.00
2019-02-09T09:36:21.513Z,5496.00
2019-02-09T09:37:21.555Z,5360.00
2019-02-09T09:38:21.590Z,5352.00
2019-02-09T09:39:21.622Z,5872.00
2019-02-09T09:40:21.663Z,5932.00
2019-02-09T09:41:21.707Z,8440.00
2019-02-09T09:42:21.742Z,8872.00
2019-02-09T09:43:21.780Z,8160.00
2019-02-09T09:44:21.821Z,8636.00
2019-02-09T09:45:21.858Z,7392.00
2019-02-09T09:46:21.907Z,7144.00
2019-02-09T09:47:21.939Z,6988.00
2019-02-09T09:48:21.982Z,7300.00
2019-02-09T09:49:22.018Z,7484.00
2019-02-09T09:50:22.058Z,7212.00
2019-02-09T09:51:22.098Z,6924.00
2019-02-09T09:52:22.138Z,6900.00
2019-02-09T09:53:22.176Z,7160.00
2019-02-09T09:54:22.215Z,7108.00
2019-02-09T09:55:22.255Z,6640.00
2019-02-09T09:56:22.297Z,6580.00
2019-02-09T09:57:22.336Z,7100.00
2019-02-09T09:58:22.377Z,7296.00
2019-02-09T09:59:22.418Z,7884.00
2019-02-09T10:00:22.471Z,7644.00
2019-02-09T10:01:22.500Z,7112.00
2019-02-09T10:02:22.537Z,7264.00
2019-02-09T10:03:22.583Z,7408.00
2019-02-09T10:04:22.621Z,7640.00
2019-02-09T10:05:22.653Z,7652.00
2019-02-09T10:06:22.707Z,7184.00
2019-02-09T10:07:22.736Z,7012.00
2019-02-09T10:08:22.775Z,7316.00
2019-02-09T10:09:22.814Z,7828.00
2019-02-09T10:10:22.855Z,8012.00
2019-02-09T10:11:22.905Z,8200.00
2019-02-09T10:12:22.943Z,8168.00
2019-02-09T10:13:22.974Z,7292.00
2019-02-09T10:14:23.012Z,7056.00
2019-02-09T10:15:23.055Z,6844.00
2019-02-09T10:16:23.094Z,6204.00
2019-02-09T10:17:23.148Z,5432.00
2019-02-09T10:18:23.174Z,5208.00
2019-02-09T10:19:23.231Z,5208.00
2019-02-09T10:20:23.255Z,4916.00
2019-02-09T10:21:23.297Z,5192.00
2019-02-09T10:22:23.337Z,5824.00
2019-02-09T10:23:23.374Z,7432.00
2019-02-09T10:24:23.416Z,6812.00
2019-02-09T10:25:23.460Z,5904.00
2019-02-09T10:26:23.495Z,5564.00
2019-02-09T10:27:23.541Z,5128.00
2019-02-09T10:28:23.576Z,4428.00
2019-02-09T10:29:23.615Z,5044.00
2019-02-09T10:30:23.658Z,5868.00
2019-02-09T10:31:23.694Z,5952.00
2019-02-09T10:32:23.736Z,5096.00
2019-02-09T10:33:23.776Z,5184.00
2019-02-09T10:34:23.815Z,5580.00
2019-02-09T10:35:23.855Z,5920.00
2019-02-09T10:36:23.894Z,5408.00
2019-02-09T10:37:23.935Z,5440.00
2019-02-09T10:38:23.977Z,5488.00
2019-02-09T10:39:24.014Z,5148.00
2019-02-09T10:40:24.064Z,4884.00
2019-02-09T10:41:24.094Z,4616.00
2019-02-09T10:42:24.135Z,4524.00
2019-02-09T10:43:24.175Z,4508.00
2019-02-09T10:44:24.213Z,4576.00
2019-02-09T10:45:24.254Z,4748.00
2019-02-09T10:46:24.293Z,4944.00
2019-02-09T10:47:24.340Z,5084.00
2019-02-09T10:48:24.381Z,5224.00
2019-02-09T10:49:24.413Z,5528.00
2019-02-09T10:50:24.453Z,5784.00
2019-02-09T10:51:24.505Z,6060.00
2019-02-09T10:52:24.535Z,6416.00
2019-02-09T10:53:24.571Z,6972.00
2019-02-09T10:54:24.625Z,8032.00
2019-02-09T10:55:24.652Z,8748.00
2019-02-09T10:56:24.694Z,8152.00
2019-02-09T10:57:24.731Z,7792.00
2019-02-09T10:58:24.773Z,7860.00
2019-02-09T10:59:24.828Z,8408.00
2019-02-09T11:00:24.853Z,9324.00
2019-02-09T11:01:24.897Z,10276.00
2019-02-09T11:02:24.941Z,10676.00
2019-02-09T11:03:24.976Z,10364.00
2019-02-09T11:04:25.012Z,9700.00
2019-02-09T11:05:25.060Z,9396.00
2019-02-09T11:06:25.097Z,9116.00
2019-02-09T11:07:25.131Z,8976.00
2019-02-09T11:08:25.171Z,8612.00
2019-02-09T11:09:25.213Z,7320.00
2019-02-09T11:10:25.251Z,6276.00
2019-02-09T11:11:25.293Z,5696.00
2019-02-09T11:12:25.340Z,5328.00
2019-02-09T11:13:25.380Z,5376.00
2019-02-09T11:14:25.426Z,5288.00
2019-02-09T11:15:25.464Z,5312.00
2019-02-09T11:16:25.494Z,5372.00
2019-02-09T11:17:25.539Z,5596.00
2019-02-09T11:18:25.580Z,6016.00
2019-02-09T11:19:25.629Z,6632.00
2019-02-09T11:20:25.656Z,6608.00
2019-02-09T11:21:25.695Z,5900.00
2019-02-09T11:22:25.735Z,5784.00
2019-02-09T11:23:25.785Z,6124.00
2019-02-09T11:24:25.827Z,6208.00
2019-02-09T11:25:25.857Z,5636.00
2019-02-09T11:26:25.906Z,5420.00
2019-02-09T11:27:25.939Z,5488.00
2019-02-09T11:28:25.977Z,5220.00
2019-02-09T11:29:26.025Z,5012.00
2019-02-09T11:30:26.059Z,5156.00
2019-02-09T11:31:26.102Z,5556.00
2019-02-09T11:32:26.143Z,6544.00
2019-02-09T11:33:26.180Z,5572.00
2019-02-09T11:34:26.221Z,5116.00
2019-02-09T11:35:26.262Z,4716.00
2019-02-09T11:36:26.302Z,5220.00
2019-02-09T11:37:26.341Z,5108.00
2019-02-09T11:38:26.381Z,5000.00
2019-02-09T11:39:26.422Z,5016.00
2019-02-09T11:40:26.461Z,4844.00
2019-02-09T11:41:26.507Z,5300.00
2019-02-09T11:42:26.542Z,5264.00
2019-02-09T11:43:26.581Z,5372.00
2019-02-09T11:44:26.621Z,5280.00
2019-02-09T11:45:26.669Z,5476.00
2019-02-09T11:46:26.704Z,5864.00
2019-02-09T11:47:26.743Z,5872.00
2019-02-09T11:48:26.782Z,5124.00
2019-02-09T11:49:26.823Z,5444.00
2019-02-09T11:50:26.862Z,5240.00
2019-02-09T11:51:26.902Z,5100.00
2019-02-09T11:52:26.954Z,5252.00
2019-02-09T11:53:26.983Z,5512.00
2019-02-09T11:54:27.030Z,6020.00
2019-02-09T11:55:27.063Z,5708.00
2019-02-09T11:56:27.106Z,5720.00
2019-02-09T11:57:27.151Z,5604.00
2019-02-09T11:58:27.187Z,5084.00
2019-02-09T11:59:27.226Z,5184.00
2019-02-09T12:00:27.288Z,6160.00
2019-02-09T12:01:27.305Z,6260.00
2019-02-09T12:02:27.344Z,6212.00
2019-02-09T12:03:27.394Z,7092.00
2019-02-09T12:04:27.429Z,8412.00
2019-02-09T12:05:27.466Z,9048.00
2019-02-09T12:06:27.507Z,8428.00
2019-02-09T12:07:27.555Z,8176.00
2019-02-09T12:08:27.639Z,9652.00
2019-02-09T12:09:27.626Z,9852.00
2019-02-09T12:10:27.674Z,8964.00
2019-02-09T12:11:27.706Z,8236.00
2019-02-09T12:12:27.761Z,8996.00
2019-02-09T12:13:27.788Z,8244.00
2019-02-09T12:14:27.828Z,7148.00
2019-02-09T12:15:27.909Z,6548.00
2019-02-09T12:16:27.919Z,7384.00
2019-02-09T12:17:27.947Z,8772.00
2019-02-09T12:18:27.989Z,8124.00
2019-02-09T12:19:28.037Z,7092.00
2019-02-09T12:20:28.069Z,7740.00
2019-02-09T12:21:28.110Z,8116.00
2019-02-09T12:22:28.151Z,8608.00
2019-02-09T12:23:28.192Z,8940.00
2019-02-09T12:24:28.238Z,8928.00
2019-02-09T12:25:28.273Z,8372.00
2019-02-09T12:26:28.312Z,8388.00
2019-02-09T12:27:28.357Z,8692.00
2019-02-09T12:28:28.395Z,7884.00
2019-02-09T12:29:28.437Z,7348.00
2019-02-09T12:30:28.477Z,7124.00
2019-02-09T12:31:28.526Z,7348.00
2019-02-09T12:32:28.568Z,7840.00
2019-02-09T12:33:28.602Z,7640.00
2019-02-09T12:34:28.639Z,7588.00
2019-02-09T12:35:28.713Z,7796.00
2019-02-09T12:36:28.728Z,7716.00
2019-02-09T12:37:28.778Z,7728.00
2019-02-09T12:38:28.805Z,8116.00
2019-02-09T12:39:28.846Z,8300.00
2019-02-09T12:40:28.904Z,8056.00
2019-02-09T12:41:28.934Z,8384.00
2019-02-09T12:42:28.966Z,8592.00
2019-02-09T12:43:29.007Z,8752.00